KHWD

Hayward Executive Airport

Hayward, California, USA
METAR KHWD 141654Z 14009KT 10SM FEW100 14/08 A3002 RMK AO2 SLP175 T01440083
Observed Flight Rules
Dec-14 @ 16:54 UTC (10 minutes ago) Visual Flight Rules
Wind Visibility Clouds
140° at 9 knots 10 miles
  • Few at 10,000' AGL
Temperatures Readings
Current 14°C / 57°F
Dewpoint 8°C / 46°F
Humidity 67%
Altimeter 30.02" Hg
Pressure 1017.5 hPa
Elevation 21
METAR KHWD 141654Z 14009KT 10SM FEW100 14/08 A3002 RMK AO2 SLP175 T01440083
Observed Flight Rules
Dec-14 @ 16:54 UTC
(10 minutes ago)
VFR
Wind Visibility
140° at 9 knots 10 miles
Clouds
  • Few at 10,000' AGL
Temperature Dewpoint
14°C / 57°F 8°C / 46°F
Humidity Altimeter Pressure
67% 30.02" Hg 1017.5 hPa